Time;durP1;ratioP1;P1;durP2;ratioP2;P2;SDS_P1;SDS_P2;PMS_P1;PMS_P2;Temp;Humidity;BMP_temperature;BMP_pressure;BME280_temperature;BME280_humidity;BME280_pressure;Samples;Min_cycle;Max_cycle;Signal;HPM_P1;HPM_P2
2022/02/16 00:00:57;;;;;;;0.85;0.70;;;;;;;1.36;41.96;92370.06;4974111;28;20057;-92
2022/02/16 00:03:52;;;;;;;;;;;;;;;;;;;;;
2022/02/16 00:06:57;;;;;;;0.68;0.68;;;;;;;1.34;41.52;92374.66;4997099;28;20129;-92
2022/02/16 00:10:08;;;;;;;0.40;0.40;;;;;;;1.40;41.46;92357.50;4997590;28;20038;-91
2022/02/16 00:13:36;;;;;;;0.50;0.50;;;;;;;1.43;41.17;92375.84;5001551;28;20056;-92
2022/02/16 00:16:38;;;;;;;;;;;;;;;;;;;;;
2022/02/16 00:19:27;;;;;;;0.52;0.52;;;;;;;1.31;40.56;92356.31;4989590;28;20046;-93
2022/02/16 00:29:14;;;;;;;;;;;;;;;;;;;;;
2022/02/16 00:32:14;;;;;;;1.20;0.73;;;;;;;1.42;39.87;92368.38;4982804;28;20459;-90
2022/02/16 00:34:48;;;;;;;1.20;0.70;;;;;;;1.29;39.82;92348.03;4957997;28;20051;-91
2022/02/16 00:37:32;;;;;;;0.60;0.60;;;;;;;1.38;39.88;92368.03;4942388;28;20472;-92
2022/02/16 00:40:15;;;;;;;0.57;0.57;;;;;;;1.32;39.84;92363.81;4942696;28;20451;-92
2022/02/16 00:46:21;;;;;;;0.60;0.60;;;;;;;1.29;39.75;92350.59;4974014;28;20042;-91
2022/02/16 00:49:38;;;;;;;0.95;0.60;;;;;;;1.39;39.63;92377.31;4966014;28;20048;-91
2022/02/16 00:52:38;;;;;;;0.65;0.57;;;;;;;1.71;37.98;92376.81;4984587;28;20052;-90
2022/02/16 00:55:27;;;;;;;;;;;;;;;;;;;;;
2022/02/16 00:58:31;;;;;;;;;;;;;;;;;;;;;
2022/02/16 01:01:44;;;;;;;0.60;0.60;;;;;;;1.58;39.58;92436.50;4980774;28;20050;-91
2022/02/16 01:04:46;;;;;;;0.60;0.60;;;;;;;1.39;39.99;92426.34;4969015;28;20086;-91
2022/02/16 01:07:37;;;;;;;;;;;;;;;;;;;;;
2022/02/16 01:10:57;;;;;;;0.73;0.50;;;;;;;1.15;41.93;92433.41;4980495;28;20050;-91
2022/02/16 01:14:25;;;;;;;0.95;0.70;;;;;;;0.56;41.91;92363.97;4987196;28;20117;-91
2022/02/16 01:17:32;;;;;;;1.45;0.60;;;;;;;0.71;42.25;92398.78;4980302;28;20054;-91
2022/02/16 01:20:31;;;;;;;;;;;;;;;;;;;;;
2022/02/16 01:23:40;;;;;;;;;;;;;;;;;;;;;
2022/02/16 01:26:47;;;;;;;;;;;;;;;;;;;;;
2022/02/16 01:29:54;;;;;;;;;;;;;;;;;;;;;
2022/02/16 01:32:57;;;;;;;0.75;0.68;;;;;;;0.52;39.95;92365.44;4995242;28;20062;-91
2022/02/16 01:36:15;;;;;;;0.75;0.70;;;;;;;0.61;40.47;92384.69;5018961;28;20037;-92
2022/02/16 01:39:09;;;;;;;;;;;;;;;;;;;;;
2022/02/16 01:41:59;;;;;;;;;;;;;;;;;;;;;
2022/02/16 01:44:55;;;;;;;0.95;0.73;;;;;;;0.41;43.02;92417.75;5016300;28;20055;-91
2022/02/16 01:48:00;;;;;;;0.60;0.60;;;;;;;0.45;43.49;92436.09;5019071;28;20049;-91
2022/02/16 01:51:10;;;;;;;0.75;0.75;;;;;;;-0.25;43.96;92355.28;5019504;28;20065;-90
2022/02/16 01:54:29;;;;;;;0.90;0.80;;;;;;;-0.25;44.73;92384.41;4993305;28;20049;-90
2022/02/16 01:57:34;;;;;;;;;;;;;;;;;;;;;
2022/02/16 02:00:29;;;;;;;1.50;0.90;;;;;;;-0.35;43.18;92381.56;5037219;28;20048;-90
2022/02/16 02:03:16;;;;;;;;;;;;;;;;;;;;;
2022/02/16 02:06:18;;;;;;;0.60;0.60;;;;;;;-0.56;44.27;92364.09;5033923;28;20092;-91
2022/02/16 02:15:21;;;;;;;0.80;0.60;;;;;;;-0.53;45.29;92402.22;5015470;28;20080;-91
2022/02/16 02:18:32;;;;;;;;;;;;;;;;;;;;;
2022/02/16 02:21:22;;;;;;;0.68;0.68;;;;;;;-0.85;46.30;92376.78;5036878;28;20033;-91
2022/02/16 02:24:19;;;;;;;0.70;0.70;;;;;;;-0.93;45.77;92367.56;4988134;28;20041;-90
2022/02/16 02:27:04;;;;;;;0.60;0.60;;;;;;;-1.06;46.63;92358.28;5019273;28;20119;-90
2022/02/16 02:33:21;;;;;;;0.60;0.60;;;;;;;-0.78;44.88;92408.31;5020329;28;20650;-91
2022/02/16 02:36:25;;;;;;;;;;;;;;;;;;;;;
2022/02/16 02:39:35;;;;;;;0.95;0.73;;;;;;;-1.19;46.52;92360.19;5034592;28;20047;-91
2022/02/16 02:43:08;;;;;;;0.70;0.70;;;;;;;-1.18;47.19;92370.28;5002114;28;20071;-91
2022/02/16 02:48:59;;;;;;;;;;;;;;;;;;;;;
2022/02/16 02:55:36;;;;;;;;;;;;;;;;;;;;;
2022/02/16 02:58:45;;;;;;;1.20;0.80;;;;;;;-1.06;48.19;92412.22;5019041;28;20322;-92
2022/02/16 03:02:16;;;;;;;0.82;0.70;;;;;;;-1.18;48.50;92403.66;5018743;28;20057;-90
2022/02/16 03:05:45;;;;;;;0.65;0.60;;;;;;;-1.54;48.39;92351.34;5021903;28;20047;-91
2022/02/16 03:08:33;;;;;;;0.93;0.63;;;;;;;-1.53;47.28;92355.50;5032142;28;20491;-91
2022/02/16 03:11:32;;;;;;;0.55;0.55;;;;;;;-1.59;48.07;92351.22;5006784;28;20037;-92
2022/02/16 03:14:27;;;;;;;;;;;;;;;;;;;;;
2022/02/16 03:17:21;;;;;;;0.70;0.70;;;;;;;-1.08;46.83;92403.16;5003325;28;20406;-91
2022/02/16 03:19:52;;;;;;;1.75;0.70;;;;;;;-1.55;47.85;92341.31;4969186;28;20033;-92
2022/02/16 03:22:43;;;;;;;1.45;0.80;;;;;;;-0.91;46.50;92421.34;4983210;28;20107;-91
2022/02/16 03:29:12;;;;;;;;;;;;;;;;;;;;;
2022/02/16 03:32:22;;;;;;;;;;;;;;;;;;;;;
2022/02/16 03:35:25;;;;;;;0.93;0.80;;;;;;;-1.00;46.50;92342.97;5012553;28;20407;-93
2022/02/16 03:38:16;;;;;;;0.82;0.73;;;;;;;-0.86;47.60;92352.06;4983207;28;20046;-93
2022/02/16 03:41:13;;;;;;;1.15;1.00;;;;;;;-0.86;48.13;92339.22;4967934;28;20034;-92
2022/02/16 03:43:56;;;;;;;3.38;1.02;;;;;;;-0.86;48.21;92345.16;4998976;28;20399;-93
2022/02/16 03:46:51;;;;;;;1.17;0.80;;;;;;;-0.83;49.68;92351.63;5015046;28;20045;-93
2022/02/16 03:50:02;;;;;;;0.85;0.80;;;;;;;-0.99;50.20;92339.41;4987964;28;20042;-93
2022/02/16 03:52:52;;;;;;;0.70;0.70;;;;;;;-0.98;49.97;92346.13;4985085;28;20042;-91
2022/02/16 03:55:58;;;;;;;;;;;;;;;;;;;;;
2022/02/16 03:59:17;;;;;;;1.23;0.90;;;;;;;-0.63;48.79;92379.63;4986014;28;20137;-93
2022/02/16 04:02:16;;;;;;;0.88;0.80;;;;;;;-0.90;49.11;92356.06;4987470;28;20053;-92
2022/02/16 04:05:14;;;;;;;1.13;0.85;;;;;;;-0.88;49.84;92362.56;4982334;28;20061;-92
2022/02/16 04:07:58;;;;;;;1.73;0.80;;;;;;;-0.58;50.64;92412.41;4980033;28;20043;-91
2022/02/16 04:14:09;;;;;;;3.17;1.05;;;;;;;-0.93;50.72;92377.06;4997062;28;20045;-92
2022/02/16 04:20:58;;;;;;;;;;;;;;;;;;;;;
2022/02/16 04:27:20;;;;;;;2.17;1.17;;;;;;;-0.87;53.00;92386.50;5017847;28;20054;-92
2022/02/16 04:30:15;;;;;;;1.67;1.08;;;;;;;-0.91;53.52;92382.78;5019674;28;20037;-91
2022/02/16 04:36:33;;;;;;;1.65;0.98;;;;;;;-0.94;54.19;92386.56;5024442;28;20506;-92
2022/02/16 04:39:45;;;;;;;1.42;1.00;;;;;;;-0.99;54.09;92381.31;5017521;28;20045;-91
2022/02/16 04:42:44;;;;;;;;;;;;;;;;;;;;;
2022/02/16 04:45:35;;;;;;;2.90;1.10;;;;;;;-0.70;53.10;92415.72;5002859;28;19931;-92
2022/02/16 04:48:26;;;;;;;1.45;1.08;;;;;;;-0.81;52.89;92385.63;5000696;28;20049;-91
2022/02/16 04:55:16;;;;;;;1.02;0.82;;;;;;;-0.81;54.29;92383.06;5014918;28;20057;-91
2022/02/16 04:58:21;;;;;;;;;;;;;;;;;;;;;
2022/02/16 05:01:40;;;;;;;1.75;0.90;;;;;;;-0.68;55.26;92408.53;4997465;28;20054;-92
2022/02/16 05:04:41;;;;;;;1.05;0.90;;;;;;;-0.78;53.88;92397.25;4992958;28;20507;-91
2022/02/16 05:07:18;;;;;;;0.82;0.80;;;;;;;-0.43;52.91;92447.00;4981168;28;20125;-91
2022/02/16 05:10:29;;;;;;;0.90;0.80;;;;;;;-0.88;54.13;92369.47;5001090;28;20091;-92
2022/02/16 05:13:18;;;;;;;1.30;1.00;;;;;;;-0.64;54.78;92411.47;4990828;28;20041;-92
2022/02/16 05:16:09;;;;;;;1.73;0.95;;;;;;;-0.49;54.43;92436.78;4999707;28;20128;-91
2022/02/16 05:19:21;;;;;;;1.50;1.00;;;;;;;-0.51;54.27;92433.66;5002127;28;20045;-91
2022/02/16 05:22:02;;;;;;;1.60;0.98;;;;;;;-0.66;55.12;92405.78;4987038;28;20410;-88
2022/02/16 05:25:08;;;;;;;0.95;0.80;;;;;;;-0.43;55.11;92448.75;4986399;28;20050;-89
2022/02/16 05:27:40;;;;;;;1.27;0.85;;;;;;;-0.79;55.72;92401.59;4986836;28;20053;-88
2022/02/16 05:30:40;;;;;;;1.80;1.00;;;;;;;-0.50;55.28;92437.78;4983938;28;20042;-88
2022/02/16 05:33:57;;;;;;;1.75;1.10;;;;;;;-0.65;54.61;92427.91;4976351;28;20051;-88
2022/02/16 05:37:08;;;;;;;;;;;;;;;;;;;;;
2022/02/16 05:40:20;;;;;;;;;;;;;;;;;;;;;
2022/02/16 05:43:24;;;;;;;;;;;;;;;;;;;;;
2022/02/16 05:46:11;;;;;;;1.70;1.08;;;;;;;-0.64;55.19;92430.25;4983522;28;20050;-88
2022/02/16 05:49:10;;;;;;;;;;;;;;;;;;;;;
2022/02/16 05:52:16;;;;;;;0.95;0.77;;;;;;;-0.39;53.50;92455.03;4993677;28;20055;-88
2022/02/16 05:58:19;;;;;;;0.70;0.70;;;;;;;-0.68;55.89;92398.25;4978293;28;20046;-88
2022/02/16 06:01:04;;;;;;;;;;;;;;;;;;;;;
2022/02/16 06:04:02;;;;;;;0.80;0.73;;;;;;;-0.52;54.28;92426.94;4994903;28;20556;-88
2022/02/16 06:06:50;;;;;;;;;;;;;;;;;;;;;
2022/02/16 06:09:32;;;;;;;0.73;0.70;;;;;;;-0.61;53.79;92417.97;4995474;28;20133;-89
2022/02/16 06:12:27;;;;;;;;;;;;;;;;;;;;;
2022/02/16 06:15:27;;;;;;;0.98;0.80;;;;;;;-0.53;54.51;92445.94;4983606;28;20047;-89
2022/02/16 06:18:33;;;;;;;;;;;;;;;;;;;;;
2022/02/16 06:21:33;;;;;;;0.80;0.80;;;;;;;-0.75;54.24;92423.28;4966621;28;20042;-88
2022/02/16 06:24:29;;;;;;;1.20;0.90;;;;;;;-0.52;54.33;92460.38;4980184;28;20045;-88
2022/02/16 06:27:52;;;;;;;;;;;;;;;;;;;;;
2022/02/16 06:31:26;;;;;;;0.63;0.63;;;;;;;-0.25;53.03;92492.44;4999503;28;20123;-87
2022/02/16 06:34:05;;;;;;;1.10;0.80;;;;;;;-0.37;54.02;92481.31;5010429;28;20456;-86
2022/02/16 06:36:31;;;;;;;0.82;0.70;;;;;;;-0.28;53.62;92492.09;5002843;28;20040;-87
2022/02/16 06:39:04;;;;;;;0.70;0.70;;;;;;;-0.59;53.64;92457.09;5002556;28;20061;-86
2022/02/16 06:41:37;;;;;;;0.88;0.75;;;;;;;-0.50;54.17;92468.66;5017972;28;20041;-86
2022/02/16 06:44:03;;;;;;;0.63;0.60;;;;;;;-0.70;53.96;92431.16;4986011;28;20042;-86
2022/02/16 06:46:31;;;;;;;1.20;0.90;;;;;;;-0.44;53.95;92470.34;5036301;28;20030;-86
2022/02/16 06:49:00;;;;;;;1.08;0.90;;;;;;;-0.51;53.88;92460.16;5003374;28;20033;-87
2022/02/16 06:51:30;;;;;;;0.82;0.82;;;;;;;-0.30;53.55;92482.00;5017836;28;20045;-86
2022/02/16 06:54:01;;;;;;;0.75;0.70;;;;;;;-0.34;53.60;92482.66;5018064;28;20100;-87
2022/02/16 06:56:30;;;;;;;2.15;1.00;;;;;;;-0.54;53.99;92444.38;4986697;28;20045;-86
2022/02/16 06:59:18;;;;;;;1.65;0.93;;;;;;;-0.56;54.18;92443.78;5020796;28;20393;-86
2022/02/16 07:01:46;;;;;;;1.38;1.00;;;;;;;-0.40;54.21;92475.84;5017933;28;20029;-86
2022/02/16 07:04:14;;;;;;;0.80;0.80;;;;;;;-0.46;53.91;92464.63;5001177;28;20514;-86
2022/02/16 07:06:45;;;;;;;1.23;0.90;;;;;;;-0.36;53.34;92467.47;5001456;28;20037;-87
2022/02/16 07:09:17;;;;;;;1.58;1.00;;;;;;;0.02;53.69;92515.19;5017700;28;20087;-86
2022/02/16 07:11:45;;;;;;;2.33;0.90;;;;;;;0.08;53.85;92511.75;5001926;28;20025;-87
2022/02/16 07:14:11;;;;;;;2.47;0.88;;;;;;;0.02;53.84;92486.88;5017945;28;20080;-86
2022/02/16 07:16:37;;;;;;;1.05;0.80;;;;;;;0.32;53.88;92509.22;5017598;28;20494;-86
2022/02/16 07:19:06;;;;;;;1.17;0.90;;;;;;;0.92;53.11;92533.97;5001539;28;20048;-87
2022/02/16 07:21:33;;;;;;;1.50;1.10;;;;;;;1.10;51.37;92491.81;5017836;28;20029;-86
2022/02/16 07:24:06;;;;;;;2.38;1.05;;;;;;;1.30;50.52;92492.19;5017584;28;20053;-86
2022/02/16 07:26:37;;;;;;;2.53;1.10;;;;;;;1.62;50.35;92514.97;5001124;28;20486;-86
2022/02/16 07:29:11;;;;;;;1.48;0.95;;;;;;;1.85;50.35;92512.31;5017475;28;20136;-86
2022/02/16 07:31:37;;;;;;;1.75;1.10;;;;;;;2.57;49.13;92492.00;5001047;28;20040;-86
2022/02/16 07:34:08;;;;;;;1.13;1.00;;;;;;;3.69;46.69;92479.66;5016394;28;20045;-86
2022/02/16 07:36:39;;;;;;;1.52;0.93;;;;;;;4.88;43.83;92474.38;5016994;28;20052;-87
2022/02/16 07:39:09;;;;;;;0.98;0.80;;;;;;;4.69;43.91;92494.78;5016954;28;20137;-86
2022/02/16 07:41:41;;;;;;;1.60;0.93;;;;;;;4.21;44.98;92493.88;5017302;28;20044;-86
2022/02/16 07:44:26;;;;;;;1.73;1.10;;;;;;;3.90;46.10;92476.25;5007620;28;20053;-88
2022/02/16 07:46:57;;;;;;;1.88;1.00;;;;;;;4.04;45.77;92478.44;5001681;28;20087;-87
2022/02/16 07:49:23;;;;;;;2.20;1.08;;;;;;;3.78;46.05;92483.38;5000412;28;20056;-86
2022/02/16 07:52:12;;;;;;;1.52;0.82;;;;;;;3.60;47.03;92519.94;4992780;28;20095;-86
2022/02/16 07:55:15;;;;;;;2.03;1.10;;;;;;;3.53;47.89;92551.19;5007881;28;20045;-86
2022/02/16 07:57:41;;;;;;;3.03;0.80;;;;;;;3.42;48.18;92547.69;4984605;28;20419;-86
2022/02/16 08:00:10;;;;;;;1.95;1.20;;;;;;;3.38;48.24;92553.59;4985227;28;20091;-87
2022/02/16 08:02:44;;;;;;;1.63;1.20;;;;;;;3.22;48.95;92529.34;5002114;28;20037;-87
2022/02/16 08:05:17;;;;;;;1.67;1.00;;;;;;;3.25;49.30;92519.28;5018253;28;20049;-86
2022/02/16 08:07:43;;;;;;;2.72;1.23;;;;;;;3.51;49.21;92543.69;5000577;28;20425;-86
2022/02/16 08:10:10;;;;;;;2.83;1.30;;;;;;;3.93;47.12;92545.69;5000669;28;20035;-86
2022/02/16 08:12:44;;;;;;;3.63;1.60;;;;;;;4.35;46.95;92544.28;5000684;28;20033;-86
2022/02/16 08:15:10;;;;;;;2.17;1.30;;;;;;;5.29;44.71;92531.69;5000437;28;20051;-86
2022/02/16 08:17:38;;;;;;;2.53;1.30;;;;;;;6.11;41.91;92519.03;4984254;28;20048;-87
2022/02/16 08:20:09;;;;;;;2.72;1.38;;;;;;;7.02;39.42;92543.50;4984331;28;20099;-86
2022/02/16 08:22:44;;;;;;;4.15;1.40;;;;;;;8.08;37.86;92538.22;5001375;28;20040;-86
2022/02/16 08:25:12;;;;;;;1.33;1.00;;;;;;;8.59;36.15;92539.78;4983665;28;20041;-86
2022/02/16 08:28:02;;;;;;;;;;;;;;;9.88;34.19;92542.75;5003155;28;20069;-88
2022/02/16 08:30:28;;;;;;;1.77;1.10;;;;;;;10.41;32.07;92521.69;5000074;28;19917;-88
2022/02/16 08:32:54;;;;;;;1.45;1.00;;;;;;;10.35;31.36;92538.50;5033884;28;20060;-87
2022/02/16 08:35:30;;;;;;;4.25;1.40;;;;;;;10.85;31.21;92530.97;4986626;28;20052;-87
2022/02/16 08:37:57;;;;;;;2.25;1.23;;;;;;;10.80;30.65;92536.28;4999494;28;20120;-87
2022/02/16 08:40:23;;;;;;;1.88;1.30;;;;;;;10.46;30.29;92529.47;5016183;28;20077;-86
2022/02/16 08:42:51;;;;;;;1.38;1.00;;;;;;;10.70;30.85;92544.31;5017018;28;20041;-86
2022/02/16 08:45:16;;;;;;;2.53;1.30;;;;;;;10.35;31.90;92543.75;5033565;28;20049;-87
2022/02/16 08:47:42;;;;;;;2.35;1.38;;;;;;;9.93;31.71;92548.69;4999791;28;20053;-86
2022/02/16 08:50:08;;;;;;;2.08;1.27;;;;;;;9.08;32.17;92523.19;4999548;28;20100;-86
2022/02/16 08:52:34;;;;;;;2.22;1.08;;;;;;;9.17;34.06;92526.78;4983424;28;20037;-87
2022/02/16 08:54:59;;;;;;;2.38;1.30;;;;;;;9.04;33.75;92530.03;4983267;28;20453;-87
2022/02/16 08:57:25;;;;;;;3.33;1.70;;;;;;;8.61;35.15;92542.91;4999130;28;20115;-86
2022/02/16 08:59:50;;;;;;;1.70;1.05;;;;;;;8.58;33.95;92536.41;5015251;28;20087;-87
2022/02/16 09:02:16;;;;;;;2.38;1.30;;;;;;;8.40;33.66;92529.16;5015861;28;20060;-87
2022/02/16 09:04:42;;;;;;;3.97;2.05;;;;;;;7.83;36.16;92537.28;4999667;28;20029;-86
2022/02/16 09:09:51;;;;;;;2.75;1.50;;;;;;;8.22;35.70;92530.56;5015960;28;20089;-87
2022/02/16 09:12:17;;;;;;;2.70;1.40;;;;;;;7.75;36.33;92539.69;5015996;28;20037;-86
2022/02/16 09:14:42;;;;;;;2.25;1.30;;;;;;;7.34;35.08;92540.59;4983366;28;20068;-86
2022/02/16 09:17:08;;;;;;;2.83;1.40;;;;;;;7.00;37.32;92524.75;4999321;28;20021;-87
2022/02/16 09:19:36;;;;;;;3.50;1.50;;;;;;;6.71;39.06;92529.72;4999433;28;20050;-86
2022/02/16 09:22:03;;;;;;;2.40;1.50;;;;;;;6.78;38.23;92528.44;5033248;28;20034;-86
2022/02/16 09:24:29;;;;;;;2.58;1.20;;;;;;;6.80;36.50;92525.56;5012538;28;20022;-86
2022/02/16 09:26:55;;;;;;;7.15;1.30;;;;;;;6.65;36.45;92513.34;4997132;28;20038;-86
2022/02/16 09:29:22;;;;;;;1.90;1.02;;;;;;;6.71;36.37;92521.91;4983207;28;20044;-86
2022/02/16 09:31:53;;;;;;;1.92;1.08;;;;;;;6.79;35.77;92514.38;5015760;28;20382;-86
2022/02/16 09:34:18;;;;;;;4.18;1.20;;;;;;;6.87;36.53;92497.47;4999190;28;20065;-86
2022/02/16 09:36:44;;;;;;;3.10;1.23;;;;;;;7.40;35.61;92512.69;5015604;28;20037;-86
2022/02/16 09:39:10;;;;;;;1.73;1.10;;;;;;;8.28;33.60;92511.25;5015387;28;20795;-87
2022/02/16 09:41:37;;;;;;;4.78;1.25;;;;;;;9.38;33.11;92503.81;4998923;28;20477;-87
2022/02/16 09:44:03;;;;;;;2.30;1.30;;;;;;;9.60;31.09;92498.09;4998786;28;20049;-86
2022/02/16 09:46:29;;;;;;;3.10;1.40;;;;;;;10.38;30.73;92511.75;4999111;28;20033;-87
2022/02/16 09:48:55;;;;;;;3.63;1.38;;;;;;;10.91;30.34;92477.44;5011704;28;20112;-86
2022/02/16 09:51:21;;;;;;;3.47;1.27;;;;;;;11.22;30.09;92513.59;5032792;28;20033;-87
2022/02/16 09:53:47;;;;;;;3.50;1.50;;;;;;;11.17;30.44;92500.59;5014723;28;20450;-88
2022/02/16 09:56:13;;;;;;;4.95;2.00;;;;;;;9.80;32.65;92508.31;5015241;28;20069;-86
2022/02/16 09:58:39;;;;;;;5.03;2.10;;;;;;;9.23;34.68;92481.28;5006846;28;20042;-85
2022/02/16 10:01:07;;;;;;;6.53;2.90;;;;;;;8.50;37.95;92501.22;4972413;28;20070;-86
2022/02/16 10:03:35;;;;;;;7.25;3.03;;;;;;;8.88;38.99;92514.47;5014816;28;20471;-86
2022/02/16 10:06:04;;;;;;;7.53;3.67;;;;;;;8.32;41.35;92509.66;4986420;28;20453;-86
2022/02/16 10:08:46;;;;;;;9.23;3.00;;;;;;;8.79;39.80;92499.69;4982409;28;20038;-86
2022/02/16 10:11:14;;;;;;;5.32;2.35;;;;;;;8.63;37.27;92509.47;5007798;28;20116;-86
2022/02/16 10:13:40;;;;;;;7.93;2.42;;;;;;;8.99;36.34;92504.75;5018481;28;20029;-86
2022/02/16 10:16:06;;;;;;;6.72;2.03;;;;;;;9.35;34.30;92513.00;5018561;28;20112;-86
2022/02/16 10:18:33;;;;;;;4.28;2.25;;;;;;;9.91;34.01;92511.59;5035976;28;20045;-88
2022/02/16 10:21:06;;;;;;;4.88;1.65;;;;;;;9.96;32.24;92510.75;5035986;28;20429;-86
2022/02/16 10:23:41;;;;;;;7.75;1.80;;;;;;;9.73;32.45;92504.50;5002168;28;20037;-86
2022/02/16 10:26:07;;;;;;;3.90;1.90;;;;;;;10.12;32.55;92512.09;5002130;28;20037;-86
2022/02/16 10:28:39;;;;;;;4.20;1.83;;;;;;;10.45;32.09;92501.75;5001948;28;20095;-86
2022/02/16 10:31:08;;;;;;;;;;;;;;;10.40;32.90;92513.06;5018890;28;20056;-86
2022/02/16 10:33:42;;;;;;;6.70;2.40;;;;;;;9.84;35.56;92499.91;5017605;28;20026;-86
2022/02/16 10:36:17;;;;;;;7.15;3.13;;;;;;;9.89;34.32;92511.09;5017998;28;20064;-85
2022/02/16 10:38:57;;;;;;;7.20;2.67;;;;;;;8.95;36.62;92501.88;5001533;28;20466;-86
2022/02/16 10:41:42;;;;;;;6.45;2.63;;;;;;;9.66;35.25;92512.69;5017519;28;20495;-87
2022/02/16 10:44:26;;;;;;;4.93;2.22;;;;;;;9.94;33.24;92502.41;5017476;28;20033;-86
2022/02/16 10:47:10;;;;;;;3.10;1.63;;;;;;;10.51;31.16;92478.88;5017474;28;20049;-86
2022/02/16 10:49:38;;;;;;;4.28;1.75;;;;;;;10.95;28.68;92498.63;5017047;28;20044;-86
2022/02/16 10:52:07;;;;;;;2.95;1.42;;;;;;;11.31;28.44;92500.63;5035273;28;20072;-87
2022/02/16 10:54:33;;;;;;;4.10;1.77;;;;;;;9.87;30.32;92437.38;5034803;28;20025;-86
2022/02/16 10:56:59;;;;;;;3.88;1.98;;;;;;;11.38;30.76;92496.53;5017367;28;20761;-86
2022/02/16 10:59:25;;;;;;;7.60;2.80;;;;;;;11.95;32.83;92498.09;5017451;28;20038;-86
2022/02/16 11:01:52;;;;;;;6.15;2.85;;;;;;;11.73;33.90;92483.84;5000787;28;20158;-86
2022/02/16 11:04:21;;;;;;;8.23;3.17;;;;;;;10.94;33.96;92500.47;5000778;28;20040;-86
2022/02/16 11:06:48;;;;;;;10.02;3.83;;;;;;;10.00;37.98;92490.81;5017125;28;20052;-85
2022/02/16 11:09:19;;;;;;;5.63;3.15;;;;;;;9.65;37.04;92490.19;5000565;28;20033;-86
2022/02/16 11:11:51;;;;;;;6.28;2.65;;;;;;;9.93;35.21;92480.72;5016904;28;20050;-85
2022/02/16 11:14:18;;;;;;;6.45;2.92;;;;;;;9.90;36.48;92483.09;5016727;28;20064;-85
2022/02/16 11:16:46;;;;;;;6.45;2.72;;;;;;;9.12;36.24;92488.44;5016715;28;20033;-86
2022/02/16 11:19:22;;;;;;;6.85;2.78;;;;;;;8.95;36.62;92488.84;4999848;28;20033;-86
2022/02/16 11:22:08;;;;;;;7.13;2.30;;;;;;;8.74;35.13;92482.25;5016683;28;20409;-85
2022/02/16 11:24:51;;;;;;;4.35;1.98;;;;;;;8.99;33.13;92476.03;4999892;28;20478;-86
2022/02/16 11:27:26;;;;;;;3.90;1.92;;;;;;;9.27;33.48;92456.13;5000488;28;20082;-86
2022/02/16 11:29:55;;;;;;;5.22;2.30;;;;;;;9.09;34.40;92435.97;5016840;28;20069;-86
2022/02/16 11:32:26;;;;;;;6.82;2.75;;;;;;;10.29;33.82;92461.94;5015915;28;20044;-86
2022/02/16 11:35:16;;;;;;;5.22;2.40;;;;;;;10.01;34.07;92450.53;5016734;28;20033;-86
2022/02/16 11:37:44;;;;;;;3.53;1.55;;;;;;;10.28;31.02;92456.94;5016440;28;20055;-87
2022/02/16 11:40:13;;;;;;;4.05;1.95;;;;;;;9.63;32.99;92460.94;4984068;28;20437;-85
2022/02/16 11:42:47;;;;;;;5.38;2.35;;;;;;;10.18;32.85;92463.88;4999846;28;20499;-86
2022/02/16 11:45:14;;;;;;;5.47;2.10;;;;;;;9.59;32.61;92459.94;5000554;28;20037;-86
2022/02/16 11:47:40;;;;;;;4.75;2.08;;;;;;;9.16;34.83;92472.97;5017427;28;20041;-85
2022/02/16 11:50:08;;;;;;;6.57;2.63;;;;;;;8.76;37.79;92469.72;5033898;28;20159;-85
2022/02/16 11:52:35;;;;;;;4.90;2.30;;;;;;;9.68;35.38;92462.72;5015931;28;20038;-86
2022/02/16 11:55:02;;;;;;;5.07;2.20;;;;;;;10.35;34.23;92460.00;4999755;28;20083;-86
2022/02/16 11:57:35;;;;;;;5.82;2.10;;;;;;;9.54;34.39;92428.66;4999571;28;20045;-86
2022/02/16 12:00:23;;;;;;;4.03;2.00;;;;;;;10.45;33.60;92454.63;5015636;28;20061;-86
2022/02/16 12:03:08;;;;;;;3.22;1.77;;;;;;;10.19;34.94;92456.81;5015681;28;20441;-87
2022/02/16 12:05:55;;;;;;;5.85;2.00;;;;;;;10.42;34.18;92449.94;5015914;28;20045;-86
2022/02/16 12:08:36;;;;;;;8.05;2.17;;;;;;;9.81;34.41;92433.28;5015900;28;20037;-85
2022/02/16 12:11:27;;;;;;;5.70;2.30;;;;;;;9.57;36.50;92428.13;5033060;28;20107;-85
2022/02/16 12:14:15;;;;;;;6.15;2.13;;;;;;;9.72;37.16;92438.34;5016297;28;20076;-85
2022/02/16 12:16:44;;;;;;;13.35;2.75;;;;;;;8.96;37.77;92424.34;5016034;28;20049;-85
2022/02/16 12:19:15;;;;;;;5.93;2.47;;;;;;;9.18;37.54;92449.97;5015768;28;20030;-86
2022/02/16 12:21:50;;;;;;;5.00;2.10;;;;;;;9.53;36.11;92429.72;4998731;28;20038;-86
2022/02/16 12:24:19;;;;;;;5.97;1.88;;;;;;;9.73;35.25;92450.38;4999368;28;20049;-85
2022/02/16 12:26:55;;;;;;;5.38;2.33;;;;;;;9.73;36.58;92445.16;5032922;28;20037;-86
2022/02/16 12:29:34;;;;;;;7.78;2.53;;;;;;;9.49;36.63;92426.88;5033049;28;20386;-85
2022/02/16 12:32:00;;;;;;;4.47;2.08;;;;;;;9.94;36.26;92418.72;5032367;28;20079;-86
2022/02/16 12:34:28;;;;;;;6.35;2.45;;;;;;;9.84;36.17;92390.91;5032258;28;20080;-86
2022/02/16 12:36:55;;;;;;;6.78;2.60;;;;;;;10.27;34.96;92424.78;4998821;28;20073;-85
2022/02/16 12:39:22;;;;;;;5.45;1.98;;;;;;;10.45;34.69;92412.75;5032657;28;20566;-86
2022/02/16 12:41:49;;;;;;;5.18;2.20;;;;;;;10.51;34.34;92419.44;5032624;28;20056;-86
2022/02/16 12:44:35;;;;;;;3.67;1.92;;;;;;;10.25;36.14;92420.91;5014963;28;20429;-86
2022/02/16 12:47:03;;;;;;;4.47;2.33;;;;;;;10.02;35.52;92412.88;5014785;28;20551;-85
2022/02/16 12:49:29;;;;;;;4.43;2.15;;;;;;;10.13;35.42;92409.03;5014690;28;20071;-86
2022/02/16 12:51:57;;;;;;;5.03;2.00;;;;;;;9.68;36.06;92407.81;4998323;28;20036;-85
2022/02/16 12:54:28;;;;;;;4.45;2.17;;;;;;;9.25;36.41;92419.06;5032692;28;20474;-86
2022/02/16 12:56:58;;;;;;;4.53;2.10;;;;;;;8.26;38.77;92424.66;5028469;28;20552;-86
2022/02/16 12:59:27;;;;;;;4.95;2.20;;;;;;;8.56;37.35;92421.09;4987782;28;20037;-85
2022/02/16 13:01:55;;;;;;;6.57;2.10;;;;;;;8.98;36.89;92414.41;5013059;28;20041;-85
2022/02/16 13:04:26;;;;;;;4.55;2.03;;;;;;;9.48;36.71;92403.63;5012535;28;20502;-86
2022/02/16 13:06:54;;;;;;;5.25;2.20;;;;;;;9.29;37.45;92414.84;5005646;28;20044;-88
2022/02/16 13:09:23;;;;;;;3.92;2.10;;;;;;;9.32;36.45;92414.31;4998446;28;20044;-87
2022/02/16 13:11:54;;;;;;;3.30;1.77;;;;;;;9.54;35.75;92373.78;5014029;28;20053;-85
2022/02/16 13:14:22;;;;;;;5.80;2.05;;;;;;;9.31;36.41;92373.53;5014483;28;20041;-86
2022/02/16 13:17:02;;;;;;;4.97;2.05;;;;;;;9.15;37.03;92390.47;5004268;28;20127;-86
2022/02/16 13:19:50;;;;;;;4.88;2.05;;;;;;;9.43;36.89;92390.66;4997724;28;20286;-88
2022/02/16 13:22:21;;;;;;;7.72;2.13;;;;;;;8.84;37.46;92376.97;5008666;28;20492;-85
2022/02/16 13:24:56;;;;;;;6.18;2.30;;;;;;;9.60;37.55;92377.88;5032209;28;20044;-86
2022/02/16 13:27:23;;;;;;;4.93;2.13;;;;;;;10.18;34.61;92376.78;5031921;28;20041;-86
2022/02/16 13:30:00;;;;;;;4.45;2.08;;;;;;;10.42;33.69;92379.31;4996972;28;20040;-85
2022/02/16 13:32:37;;;;;;;4.70;2.10;;;;;;;10.28;33.71;92357.53;5012726;28;20063;-85
2022/02/16 13:35:20;;;;;;;4.53;2.00;;;;;;;9.70;35.73;92356.81;5000264;28;20041;-85
2022/02/16 13:38:05;;;;;;;4.45;2.05;;;;;;;9.30;36.66;92343.25;5009425;28;20096;-88
2022/02/16 13:41:07;;;;;;;4.90;2.30;;;;;;;9.84;36.15;92361.34;5013438;28;20395;-91
2022/02/16 13:43:50;;;;;;;4.43;2.03;;;;;;;9.38;37.60;92341.84;5003425;28;20057;-89
2022/02/16 13:46:18;;;;;;;6.80;2.00;;;;;;;9.17;38.03;92359.63;5001384;28;20084;-89
2022/02/16 13:48:47;;;;;;;6.35;2.47;;;;;;;9.43;37.47;92354.06;5002777;28;20077;-89
2022/02/16 13:51:18;;;;;;;6.13;2.25;;;;;;;10.07;36.20;92359.72;5020153;28;20038;-88
2022/02/16 13:53:48;;;;;;;5.80;2.30;;;;;;;9.36;36.82;92344.72;4991448;28;20038;-88
2022/02/16 13:56:17;;;;;;;5.90;2.80;;;;;;;9.58;36.51;92343.41;5014291;28;20059;-89
2022/02/16 13:58:43;;;;;;;6.43;2.50;;;;;;;9.55;38.04;92357.06;5035736;28;20442;-88
2022/02/16 14:01:14;;;;;;;5.93;2.67;;;;;;;9.55;37.06;92349.22;5002462;28;20080;-89
2022/02/16 14:03:42;;;;;;;6.63;2.20;;;;;;;8.91;38.16;92320.75;5036243;28;20051;-88
2022/02/16 14:06:17;;;;;;;6.80;2.70;;;;;;;8.73;37.83;92353.56;5018798;28;20055;-88
2022/02/16 14:08:43;;;;;;;4.53;2.45;;;;;;;8.76;37.28;92357.47;5002032;28;20425;-89
2022/02/16 14:11:18;;;;;;;5.20;2.22;;;;;;;8.99;37.33;92355.91;4999448;28;20046;-88
2022/02/16 14:13:44;;;;;;;4.88;2.60;;;;;;;8.94;38.99;92346.31;5016465;28;20069;-88
2022/02/16 14:16:20;;;;;;;7.03;2.75;;;;;;;8.59;38.08;92333.66;4999999;28;20042;-89
2022/02/16 14:21:58;;;;;;;;;;;;;;;;;;;;;
2022/02/16 14:24:31;;;;;;;5.18;2.40;;;;;;;8.61;37.79;92258.47;5036386;28;20113;-89
2022/02/16 14:27:28;;;;;;;9.93;3.05;;;;;;;8.76;38.57;92313.13;5019355;28;20030;-90
2022/02/16 14:47:12;;;;;;;6.85;3.28;;;;;;;10.43;36.03;92330.38;5015291;23;20068;-78
2022/02/16 14:49:37;;;;;;;9.63;3.53;;;;;;;11.00;37.00;92334.28;4945696;28;20125;-77
2022/02/16 14:52:05;;;;;;;6.15;3.13;;;;;;;11.01;36.22;92319.34;4943813;28;20084;-77